Flight Track Log - Related Links

Times and Time Zones

All times are in EDT time to prevent confusion due to time zone crossing. See the UAL481 flight status page for this flight to view local times or setup timezone preferences in your user account.

Time Position Orientation Groundspeed Altitude Reporting Facility
EDT Latitude Longitude Course Direction KTS MPH feet Rate Location/Type
Sun 06:02:24 PM 42.7653 -73.8061 283° West 162 186 1,300  Level Boston Center
Sun 06:03:36 PM 42.8208 -73.8583 325° Northwest 224 258 3,300 2,311 Climbing Boston Center
Sun 06:04:52 PM 42.8825 -73.9333 318° Northwest 266 306 7,000 2,956 Climbing Boston Center
Sun 06:05:00 PM 42.8245 -74.2845 284° West  Level FlightAware Approximate
Sun 06:05:52 PM 42.9461 -74.0086 319° Northwest 271 312 10,000  Level Boston Center
Sun 06:06:00 PM 42.8458 -74.4077 283° West  Level FlightAware Approximate
Sun 06:06:53 PM 42.9989 -74.0953 310° West 300 345 10,900  Level Boston Center
Sun 06:07:00 PM 42.8663 -74.5311 283° West  Level FlightAware Approximate
Sun 06:07:54 PM 43.0700 -74.2192 308° West 365 420 13,200  Level Boston Center
Sun 06:08:52 PM 43.1289 -74.3264 307° West 395 455 15,200 1,966 Climbing Boston Center
Sun 06:09:53 PM 43.1975 -74.4481 308° West 401 461 17,100 1,672 Climbing Boston Center
Sun 06:10:54 PM 43.2661 -74.5758 306° West 406 467 18,600 1,537 Climbing Boston Center
Sun 06:11:54 PM 43.3386 -74.7039 308° West 422 486 20,200 1,729 Climbing Boston Center
Sun 06:12:52 PM 43.4172 -74.8356 309° West 428 493 22,000 1,780 Climbing Boston Center
Sun 06:13:52 PM 43.4597 -75.0003 290° West 412 474 23,700 1,438 Climbing Boston Center
Sun 06:14:53 PM 43.4558 -75.1689 268° West 412 474 24,900 1,091 Climbing Boston Center
Sun 06:15:53 PM 43.4472 -75.3431 266° West 437 503 25,900 496 Climbing Boston Center
Sun 06:16:54 PM 43.4386 -75.5142 266° West 444 511 25,900  Level Boston Center
Sun 06:17:54 PM 43.4297 -75.6797 266° West 444 511 25,900  Level Boston Center
Sun 06:18:52 PM 43.4208 -75.8506 266° West 444 511 25,900  Level Boston Center
Sun 06:19:52 PM 43.4136 -76.0189 267° West 444 511 25,900  Level Boston Center
Sun 06:20:53 PM 43.4036 -76.1928 266° West 444 511 25,900  Level Boston Center
Sun 06:21:54 PM 43.3939 -76.3581 265° West 444 511 25,900 34 Level Boston Center
Sun 06:23:47 PM 43.3500 -76.6500 258° West 450 518 26,000 35 Climbing Toronto Center
Sun 06:24:47 PM 43.3667 -76.8333 277° West 450 518 26,000  Level Toronto Center
Sun 06:25:47 PM 43.3500 -77.0000 262° West 450 518 26,000  Level Toronto Center
Sun 06:26:47 PM 43.3333 -77.1833 263° West 450 518 26,000  Level Toronto Center
Sun 06:27:47 PM 43.3167 -77.3333 261° West 440 506 26,000  Level Toronto Center
Sun 06:28:47 PM 43.3167 -77.5000 270° West 440 506 26,000  Level Toronto Center
Sun 06:29:47 PM 43.3000 -77.6667 262° West 440 506 26,000  Level Toronto Center
Sun 06:30:47 PM 43.3000 -77.8167 270° West 440 506 26,000  Level Toronto Center
Sun 06:31:47 PM 43.2833 -78.0000 263° West 440 506 26,000  Level Toronto Center
Sun 06:32:54 PM 43.2817 -78.1964 269° West 444 511 26,000  Level Cleveland Center
Sun 06:33:54 PM 43.2683 -78.3622 264° West 444 511 26,000  Level Cleveland Center
Sun 06:34:54 PM 43.2572 -78.5481 265° West 450 518 26,000  Level Cleveland Center
Sun 06:35:54 PM 43.2453 -78.7108 264° West 450 518 26,000  Level Cleveland Center
Sun 06:36:54 PM 43.2311 -78.8764 263° West 445 512 26,000  Level Cleveland Center
Sun 06:37:47 PM 43.2167 -79.0167 262° West 440 506 26,000  Level Toronto Center
Sun 06:38:47 PM 43.2000 -79.1833 262° West 440 506 26,000  Level Toronto Center
Sun 06:39:47 PM 43.1833 -79.3333 261° West 440 506 26,000  Level Toronto Center
Sun 06:40:47 PM 43.1667 -79.5000 262° West 440 506 26,000  Level Toronto Center
Sun 06:41:47 PM 43.1500 -79.6833 263° West 440 506 26,000  Level Toronto Center
Sun 06:42:47 PM 43.1500 -79.8333 270° West 440 506 26,000  Level Toronto Center
Sun 06:43:47 PM 43.1333 -80.0167 263° West 440 506 26,000  Level Toronto Center
Sun 06:44:47 PM 43.1167 -80.1833 262° West 450 518 26,000  Level Toronto Center
Sun 06:45:47 PM 43.1000 -80.3333 261° West 440 506 26,000 -50 Level Toronto Center
Sun 06:46:47 PM 43.0833 -80.5000 262° West 450 518 25,900  Descending Toronto Center
Sun 06:47:47 PM 43.0667 -80.6833 263° West 450 518 26,000 50 Climbing Toronto Center
Sun 06:48:47 PM 43.0500 -80.8667 263° West 460 529 26,000  Level Toronto Center
Sun 06:49:47 PM 43.0333 -81.0500 263° West 460 529 26,000  Level Toronto Center
Sun 06:50:47 PM 43.0167 -81.2000 261° West 460 529 26,000  Level Toronto Center
Sun 06:51:47 PM 43.0167 -81.3833 270° West 460 529 26,000  Level Toronto Center
Sun 06:52:47 PM 43.0167 -81.5500 270° West 460 529 26,000  Level Toronto Center
Sun 06:53:47 PM 43.0167 -81.7333 270° West 460 529 26,000  Level Toronto Center
Sun 06:54:47 PM 43.0000 -81.9167 263° West 460 529 26,000  Level Toronto Center
Sun 06:55:47 PM 43.0000 -82.0667 270° West 460 529 26,000  Level Toronto Center
Sun 06:56:47 PM 43.0000 -82.2500 270° West 460 529 26,000  Level Toronto Center
Sun 06:57:47 PM 43.0000 -82.4333 270° West 460 529 26,000  Level Toronto Center
Sun 06:58:47 PM 43.0000 -82.6167 270° West 470 541 26,000  Level Toronto Center
Sun 06:59:42 PM 43.0003 -82.7661 270° West 461 531 26,000 -52 Level Cleveland Center
Sun 07:00:42 PM 42.9925 -82.9392 267° West 461 531 25,900  Descending Cleveland Center
Sun 07:01:42 PM 42.9867 -83.1178 268° West 461 531 26,000 50 Climbing Cleveland Center
Sun 07:02:42 PM 42.9806 -83.2992 267° West 467 537 26,000  Level Cleveland Center
Sun 07:03:42 PM 42.9742 -83.4778 267° West 474 545 26,000  Level Cleveland Center
Sun 07:04:42 PM 42.9675 -83.6561 267° West 474 545 26,000  Level Cleveland Center
Sun 07:05:42 PM 42.9561 -83.8372 265° West 474 545 26,000  Level Cleveland Center
Sun 07:06:42 PM 42.9406 -84.0150 263° West 480 552 26,000  Level Cleveland Center
Sun 07:07:42 PM 42.9225 -84.1956 262° West 480 552 26,000  Level Cleveland Center
Sun 07:09:22 PM 42.8947 -84.4825 263° West 481 554 26,000  Level Chicago Center
Sun 07:10:24 PM 42.8717 -84.7003 262° West 485 558 26,000  Level Chicago Center
Sun 07:11:26 PM 42.8531 -84.8811 262° West 484 557 26,000 -48 Level Chicago Center
Sun 07:12:28 PM 42.8333 -85.0658 262° West 484 557 25,900  Descending Chicago Center
Sun 07:13:30 PM 42.8142 -85.2436 262° West 483 556 26,000 48 Climbing Chicago Center
Sun 07:14:32 PM 42.7936 -85.4233 261° West 483 556 26,000  Level Chicago Center
Sun 07:15:35 PM 42.7700 -85.5906 259° West 459 528 26,000 -144 Level Chicago Center
Sun 07:16:37 PM 42.7386 -85.7583 256° West 455 524 25,700 -1,161 Descending Chicago Center
Sun 07:17:39 PM 42.7022 -85.9581 256° West 451 519 23,600 -1,935 Descending Chicago Center
Sun 07:18:41 PM 42.6731 -86.1192 256° West 441 507 21,700 -1,742 Descending Chicago Center
Sun 07:19:43 PM 42.6456 -86.2747 257° West 425 489 20,000 -1,355 Descending Chicago Center
Sun 07:20:45 PM 42.6158 -86.4242 255° West 412 474 18,900 -1,500 Descending Chicago Center
Sun 07:21:47 PM 42.5881 -86.5717 256° West 405 466 16,900 -1,935 Descending Chicago Center
Sun 07:22:49 PM 42.5628 -86.7147 257° West 393 452 14,900 -2,032 Descending Chicago Center
Sun 07:23:51 PM 42.5281 -86.8464 250° West 374 430 12,700 -2,226 Descending Chicago Center
Sun 07:24:53 PM 42.4869 -86.9975 250° West 357 411 10,300 -1,306 Descending Chicago Center
Sun 07:25:55 PM 42.4525 -87.1153 248° West 340 391 10,000 -677 Descending Chicago Center
Sun 07:26:57 PM 42.4253 -87.2175 250° West 294 338 8,900 -1,248 Descending Chicago Center
Sun 07:28:00 PM 42.3956 -87.3169 248° West 286 329 7,400 -912 Descending Chicago Center
Sun 07:29:02 PM 42.3650 -87.4217 248° West 281 323 7,000 -194 Descending Chicago Center
Sun 07:30:04 PM 42.3350 -87.5181 247° West 281 323 7,000  Level Chicago Center
Sun 07:31:06 PM 42.2781 -87.5825 220° Southwest 258 297 7,000 -435 Level Chicago Center
Sun 07:32:08 PM 42.2303 -87.6403 222° Southwest 234 269 6,100 -823 Descending Chicago Center
Sun 07:33:10 PM 42.1778 -87.6972 219° Southwest 205 236 5,300 -919 Descending Chicago Center
Sun 07:34:12 PM 42.1375 -87.7408 219° Southwest 191 220 4,200 -1,016 Descending Chicago Center
Sun 07:35:14 PM 42.0989 -87.7875 222° Southwest 188 216 3,200 -968 Descending Chicago Center
Sun 07:36:16 PM 42.0583 -87.8300 218° Southwest 187 215 2,200 -919 Descending Chicago Center
Sun 07:37:18 PM 42.0222 -87.8714 220° Southwest 179 206 1,300 -871 Descending Chicago Center
Sun 07:39:00 PM 41.9817 -87.9067 217° Southwest  Level Estimated

Login

Don't have an account? Register now (free) for customized features, flight alerts, and more!